sensor_id;sensor_type;location;lat;lon;timestamp;temperature;humidity
75466;HTU21D;64049;46.290;44.240;2023-09-19T00:01:06;14.96;59.00
75466;HTU21D;64049;46.290;44.240;2023-09-19T00:03:37;14.95;58.84
75466;HTU21D;64049;46.290;44.240;2023-09-19T00:09:56;14.93;58.90
75466;HTU21D;64049;46.290;44.240;2023-09-19T00:12:22;14.97;58.95
75466;HTU21D;64049;46.290;44.240;2023-09-19T00:14:48;14.98;58.83
75466;HTU21D;64049;46.290;44.240;2023-09-19T00:20:32;14.92;58.80
75466;HTU21D;64049;46.290;44.240;2023-09-19T00:23:00;14.85;58.85
75466;HTU21D;64049;46.290;44.240;2023-09-19T00:28:53;14.83;58.93
75466;HTU21D;64049;46.290;44.240;2023-09-19T00:31:19;14.83;58.93
75466;HTU21D;64049;46.290;44.240;2023-09-19T00:33:45;14.79;58.92
75466;HTU21D;64049;46.290;44.240;2023-09-19T00:39:34;14.67;58.99
75466;HTU21D;64049;46.290;44.240;2023-09-19T00:42:00;14.64;58.99
75466;HTU21D;64049;46.290;44.240;2023-09-19T00:44:30;14.63;59.02
75466;HTU21D;64049;46.290;44.240;2023-09-19T00:51:08;14.77;58.77
75466;HTU21D;64049;46.290;44.240;2023-09-19T00:53:34;14.80;58.65
75466;HTU21D;64049;46.290;44.240;2023-09-19T00:59:48;14.80;58.44
75466;HTU21D;64049;46.290;44.240;2023-09-19T01:02:16;14.80;58.41
75466;HTU21D;64049;46.290;44.240;2023-09-19T01:04:43;14.80;58.37
75466;HTU21D;64049;46.290;44.240;2023-09-19T01:11:14;14.80;58.25
75466;HTU21D;64049;46.290;44.240;2023-09-19T01:14:01;14.81;58.22
75466;HTU21D;64049;46.290;44.240;2023-09-19T01:23:29;14.82;58.15
75466;HTU21D;64049;46.290;44.240;2023-09-19T01:29:48;14.71;58.25
75466;HTU21D;64049;46.290;44.240;2023-09-19T01:32:19;14.68;58.34
75466;HTU21D;64049;46.290;44.240;2023-09-19T01:34:50;14.62;58.37
75466;HTU21D;64049;46.290;44.240;2023-09-19T01:41:09;14.59;58.48
75466;HTU21D;64049;46.290;44.240;2023-09-19T01:43:42;14.65;58.36
75466;HTU21D;64049;46.290;44.240;2023-09-19T01:50:02;14.72;58.09
75466;HTU21D;64049;46.290;44.240;2023-09-19T01:52:38;14.75;57.96
75466;HTU21D;64049;46.290;44.240;2023-09-19T01:55:09;14.72;57.96
75466;HTU21D;64049;46.290;44.240;2023-09-19T01:57:54;14.69;57.99
75466;HTU21D;64049;46.290;44.240;2023-09-19T02:00:26;14.60;58.05
75466;HTU21D;64049;46.290;44.240;2023-09-19T02:02:54;14.58;58.10
75466;HTU21D;64049;46.290;44.240;2023-09-19T02:09:08;14.56;57.87
75466;HTU21D;64049;46.290;44.240;2023-09-19T02:11:35;14.56;57.86
75466;HTU21D;64049;46.290;44.240;2023-09-19T02:14:02;14.58;57.70
75466;HTU21D;64049;46.290;44.240;2023-09-19T02:20:17;14.59;57.44
75466;HTU21D;64049;46.290;44.240;2023-09-19T02:22:45;14.63;57.29
75466;HTU21D;64049;46.290;44.240;2023-09-19T02:25:11;14.63;57.19
75466;HTU21D;64049;46.290;44.240;2023-09-19T02:27:39;14.65;57.09
75466;HTU21D;64049;46.290;44.240;2023-09-19T02:30:05;14.67;56.97
75466;HTU21D;64049;46.290;44.240;2023-09-19T02:32:31;14.73;56.74
75466;HTU21D;64049;46.290;44.240;2023-09-19T02:35:01;14.78;56.58
75466;HTU21D;64049;46.290;44.240;2023-09-19T02:37:37;14.81;56.47
75466;HTU21D;64049;46.290;44.240;2023-09-19T02:40:03;14.74;56.48
75466;HTU21D;64049;46.290;44.240;2023-09-19T02:42:46;14.68;56.58
75466;HTU21D;64049;46.290;44.240;2023-09-19T02:49:02;14.63;56.64
75466;HTU21D;64049;46.290;44.240;2023-09-19T02:51:32;14.62;56.66
75466;HTU21D;64049;46.290;44.240;2023-09-19T02:54:01;14.62;56.67
75466;HTU21D;64049;46.290;44.240;2023-09-19T02:56:35;14.65;56.56
75466;HTU21D;64049;46.290;44.240;2023-09-19T02:59:01;14.63;56.50
75466;HTU21D;64049;46.290;44.240;2023-09-19T03:01:27;14.63;56.50
75466;HTU21D;64049;46.290;44.240;2023-09-19T03:03:54;14.67;56.40
75466;HTU21D;64049;46.290;44.240;2023-09-19T03:13:24;14.68;56.25
75466;HTU21D;64049;46.290;44.240;2023-09-19T03:19:37;14.63;56.27
75466;HTU21D;64049;46.290;44.240;2023-09-19T03:22:05;14.73;56.12
75466;HTU21D;64049;46.290;44.240;2023-09-19T03:24:32;14.81;55.90
75466;HTU21D;64049;46.290;44.240;2023-09-19T03:27:16;14.94;55.69
75466;HTU21D;64049;46.290;44.240;2023-09-19T03:29:43;15.01;55.49
75466;HTU21D;64049;46.290;44.240;2023-09-19T03:32:09;15.11;55.29
75466;HTU21D;64049;46.290;44.240;2023-09-19T03:34:38;15.22;55.01
75466;HTU21D;64049;46.290;44.240;2023-09-19T03:40:58;15.43;54.54
75466;HTU21D;64049;46.290;44.240;2023-09-19T03:43:24;15.45;54.55
75466;HTU21D;64049;46.290;44.240;2023-09-19T03:46:21;15.49;54.54
75466;HTU21D;64049;46.290;44.240;2023-09-19T03:48:48;15.56;54.47
75466;HTU21D;64049;46.290;44.240;2023-09-19T03:51:14;15.62;54.33
75466;HTU21D;64049;46.290;44.240;2023-09-19T03:53:40;15.72;54.16
75466;HTU21D;64049;46.290;44.240;2023-09-19T03:56:25;15.84;53.99
75466;HTU21D;64049;46.290;44.240;2023-09-19T03:58:51;15.93;53.87
75466;HTU21D;64049;46.290;44.240;2023-09-19T04:01:17;16.02;53.73
75466;HTU21D;64049;46.290;44.240;2023-09-19T04:03:44;16.13;53.43
75466;HTU21D;64049;46.290;44.240;2023-09-19T04:06:14;16.24;53.24
75466;HTU21D;64049;46.290;44.240;2023-09-19T04:08:40;16.34;52.94
75466;HTU21D;64049;46.290;44.240;2023-09-19T04:11:07;16.43;52.88
75466;HTU21D;64049;46.290;44.240;2023-09-19T04:13:33;16.52;52.79
75466;HTU21D;64049;46.290;44.240;2023-09-19T04:16:04;16.62;52.53
75466;HTU21D;64049;46.290;44.240;2023-09-19T04:18:32;16.70;52.50
75466;HTU21D;64049;46.290;44.240;2023-09-19T04:21:03;16.77;52.36
75466;HTU21D;64049;46.290;44.240;2023-09-19T04:23:32;16.84;52.01
75466;HTU21D;64049;46.290;44.240;2023-09-19T04:26:00;16.90;51.98
75466;HTU21D;64049;46.290;44.240;2023-09-19T04:28:26;16.98;51.79
75466;HTU21D;64049;46.290;44.240;2023-09-19T04:30:53;17.06;51.59
75466;HTU21D;64049;46.290;44.240;2023-09-19T04:33:20;17.16;51.52
75466;HTU21D;64049;46.290;44.240;2023-09-19T04:39:55;17.36;51.32
75466;HTU21D;64049;46.290;44.240;2023-09-19T04:42:21;17.48;50.95
75466;HTU21D;64049;46.290;44.240;2023-09-19T04:44:50;17.53;50.72
75466;HTU21D;64049;46.290;44.240;2023-09-19T04:50:56;17.77;50.43
75466;HTU21D;64049;46.290;44.240;2023-09-19T04:53:22;17.89;50.14
75466;HTU21D;64049;46.290;44.240;2023-09-19T04:55:56;18.04;49.67
75466;HTU21D;64049;46.290;44.240;2023-09-19T04:58:23;18.18;49.50
75466;HTU21D;64049;46.290;44.240;2023-09-19T05:00:49;18.30;49.21
75466;HTU21D;64049;46.290;44.240;2023-09-19T05:03:16;18.43;48.92
75466;HTU21D;64049;46.290;44.240;2023-09-19T05:09:06;18.70;48.68
75466;HTU21D;64049;46.290;44.240;2023-09-19T05:11:34;18.81;48.28
75466;HTU21D;64049;46.290;44.240;2023-09-19T05:14:02;18.94;47.69
75466;HTU21D;64049;46.290;44.240;2023-09-19T05:19:39;19.12;47.81
75466;HTU21D;64049;46.290;44.240;2023-09-19T05:22:05;19.26;47.34
75466;HTU21D;64049;46.290;44.240;2023-09-19T05:24:32;19.40;47.18
75466;HTU21D;64049;46.290;44.240;2023-09-19T05:30:47;19.70;46.91
75466;HTU21D;64049;46.290;44.240;2023-09-19T05:33:17;19.80;47.19
75466;HTU21D;64049;46.290;44.240;2023-09-19T05:38:53;20.04;46.89
75466;HTU21D;64049;46.290;44.240;2023-09-19T05:41:19;20.14;46.66
75466;HTU21D;64049;46.290;44.240;2023-09-19T05:43:45;20.24;46.35
75466;HTU21D;64049;46.290;44.240;2023-09-19T05:49:58;20.57;46.33
75466;HTU21D;64049;46.290;44.240;2023-09-19T05:52:25;20.70;45.61
75466;HTU21D;64049;46.290;44.240;2023-09-19T05:54:51;20.76;45.40
75466;HTU21D;64049;46.290;44.240;2023-09-19T06:01:05;21.00;44.13
75466;HTU21D;64049;46.290;44.240;2023-09-19T06:03:32;21.04;44.13
75466;HTU21D;64049;46.290;44.240;2023-09-19T06:09:14;21.29;43.52
75466;HTU21D;64049;46.290;44.240;2023-09-19T06:11:43;21.37;43.46
75466;HTU21D;64049;46.290;44.240;2023-09-19T06:14:09;21.46;43.35
75466;HTU21D;64049;46.290;44.240;2023-09-19T06:19:51;21.80;42.18
75466;HTU21D;64049;46.290;44.240;2023-09-19T06:22:17;21.96;41.39
75466;HTU21D;64049;46.290;44.240;2023-09-19T06:24:44;22.08;40.84
75466;HTU21D;64049;46.290;44.240;2023-09-19T06:27:18;22.17;40.07
75466;HTU21D;64049;46.290;44.240;2023-09-19T06:29:44;22.27;39.88
75466;HTU21D;64049;46.290;44.240;2023-09-19T06:32:10;22.34;38.56
75466;HTU21D;64049;46.290;44.240;2023-09-19T06:34:37;22.42;38.85
75466;HTU21D;64049;46.290;44.240;2023-09-19T06:37:08;22.62;39.58
75466;HTU21D;64049;46.290;44.240;2023-09-19T06:39:34;22.84;39.10
75466;HTU21D;64049;46.290;44.240;2023-09-19T06:42:00;22.92;38.57
75466;HTU21D;64049;46.290;44.240;2023-09-19T06:44:27;23.07;38.74
75466;HTU21D;64049;46.290;44.240;2023-09-19T06:46:55;23.23;38.37
75466;HTU21D;64049;46.290;44.240;2023-09-19T06:49:21;23.41;38.45
75466;HTU21D;64049;46.290;44.240;2023-09-19T06:51:47;23.57;38.03
75466;HTU21D;64049;46.290;44.240;2023-09-19T06:54:15;23.74;37.87
75466;HTU21D;64049;46.290;44.240;2023-09-19T07:00:08;23.98;36.87
75466;HTU21D;64049;46.290;44.240;2023-09-19T07:09:01;24.03;35.01
75466;HTU21D;64049;46.290;44.240;2023-09-19T07:12:12;24.03;35.08
75466;HTU21D;64049;46.290;44.240;2023-09-19T07:14:42;24.02;34.16
75466;HTU21D;64049;46.290;44.240;2023-09-19T07:20:30;24.13;33.60
75466;HTU21D;64049;46.290;44.240;2023-09-19T07:23:00;24.25;33.51
75466;HTU21D;64049;46.290;44.240;2023-09-19T07:25:29;24.25;33.46
75466;HTU21D;64049;46.290;44.240;2023-09-19T07:27:58;24.33;33.25
75466;HTU21D;64049;46.290;44.240;2023-09-19T07:30:49;24.59;33.71
75466;HTU21D;64049;46.290;44.240;2023-09-19T07:33:16;24.91;33.31
75466;HTU21D;64049;46.290;44.240;2023-09-19T07:35:46;25.01;33.28
75466;HTU21D;64049;46.290;44.240;2023-09-19T07:38:12;25.16;32.78
75466;HTU21D;64049;46.290;44.240;2023-09-19T07:40:39;25.12;32.58
75466;HTU21D;64049;46.290;44.240;2023-09-19T07:43:05;25.22;33.45
75466;HTU21D;64049;46.290;44.240;2023-09-19T07:46:02;25.50;33.22
75466;HTU21D;64049;46.290;44.240;2023-09-19T07:48:58;25.64;32.81
75466;HTU21D;64049;46.290;44.240;2023-09-19T07:51:24;25.78;32.39
75466;HTU21D;64049;46.290;44.240;2023-09-19T07:53:53;26.01;31.90
75466;HTU21D;64049;46.290;44.240;2023-09-19T08:07:31;26.71;31.80
75466;HTU21D;64049;46.290;44.240;2023-09-19T08:10:24;26.75;29.39
75466;HTU21D;64049;46.290;44.240;2023-09-19T08:12:53;26.39;28.45
75466;HTU21D;64049;46.290;44.240;2023-09-19T08:15:49;26.25;28.23
75466;HTU21D;64049;46.290;44.240;2023-09-19T08:22:20;26.52;28.99
75466;HTU21D;64049;46.290;44.240;2023-09-19T08:24:47;26.69;27.19
75466;HTU21D;64049;46.290;44.240;2023-09-19T08:27:25;26.50;27.35
75466;HTU21D;64049;46.290;44.240;2023-09-19T08:29:53;26.75;28.07
75466;HTU21D;64049;46.290;44.240;2023-09-19T08:32:19;27.06;27.64
75466;HTU21D;64049;46.290;44.240;2023-09-19T08:34:50;27.30;27.32
75466;HTU21D;64049;46.290;44.240;2023-09-19T08:37:16;27.54;26.88
75466;HTU21D;64049;46.290;44.240;2023-09-19T08:39:44;27.67;26.95
75466;HTU21D;64049;46.290;44.240;2023-09-19T08:42:10;27.79;26.36
75466;HTU21D;64049;46.290;44.240;2023-09-19T08:44:38;27.90;26.62
75466;HTU21D;64049;46.290;44.240;2023-09-19T08:47:10;27.93;25.78
75466;HTU21D;64049;46.290;44.240;2023-09-19T08:52:25;28.10;26.94
75466;HTU21D;64049;46.290;44.240;2023-09-19T08:54:57;28.52;26.37
75466;HTU21D;64049;46.290;44.240;2023-09-19T08:57:28;28.65;25.23
75466;HTU21D;64049;46.290;44.240;2023-09-19T08:59:55;28.57;25.25
75466;HTU21D;64049;46.290;44.240;2023-09-19T09:02:22;28.54;24.11
75466;HTU21D;64049;46.290;44.240;2023-09-19T09:04:50;28.15;23.34
75466;HTU21D;64049;46.290;44.240;2023-09-19T09:07:24;27.95;24.90
75466;HTU21D;64049;46.290;44.240;2023-09-19T09:09:50;28.23;25.42
75466;HTU21D;64049;46.290;44.240;2023-09-19T09:12:16;28.77;25.06
75466;HTU21D;64049;46.290;44.240;2023-09-19T09:14:46;29.17;24.79
75466;HTU21D;64049;46.290;44.240;2023-09-19T09:17:16;29.59;24.59
75466;HTU21D;64049;46.290;44.240;2023-09-19T09:19:46;29.87;23.77
75466;HTU21D;64049;46.290;44.240;2023-09-19T09:22:13;30.03;24.06
75466;HTU21D;64049;46.290;44.240;2023-09-19T09:24:55;30.25;23.50
75466;HTU21D;64049;46.290;44.240;2023-09-19T09:27:30;30.38;23.69
75466;HTU21D;64049;46.290;44.240;2023-09-19T09:29:57;30.62;23.18
75466;HTU21D;64049;46.290;44.240;2023-09-19T09:37:20;30.49;23.05
75466;HTU21D;64049;46.290;44.240;2023-09-19T09:39:51;30.44;23.31
75466;HTU21D;64049;46.290;44.240;2023-09-19T09:42:33;30.17;22.31
75466;HTU21D;64049;46.290;44.240;2023-09-19T09:45:17;30.08;23.02
75466;HTU21D;64049;46.290;44.240;2023-09-19T09:47:46;30.23;23.30
75466;HTU21D;64049;46.290;44.240;2023-09-19T09:50:29;30.37;22.71
75466;HTU21D;64049;46.290;44.240;2023-09-19T09:53:02;30.45;22.69
75466;HTU21D;64049;46.290;44.240;2023-09-19T09:56:00;30.52;22.76
75466;HTU21D;64049;46.290;44.240;2023-09-19T09:58:26;30.60;22.86
75466;HTU21D;64049;46.290;44.240;2023-09-19T10:00:56;30.57;22.63
75466;HTU21D;64049;46.290;44.240;2023-09-19T10:03:44;30.50;22.56
75466;HTU21D;64049;46.290;44.240;2023-09-19T10:06:17;30.40;22.35
75466;HTU21D;64049;46.290;44.240;2023-09-19T10:09:06;29.97;21.31
75466;HTU21D;64049;46.290;44.240;2023-09-19T10:12:06;29.98;22.14
75466;HTU21D;64049;46.290;44.240;2023-09-19T10:14:37;30.04;22.31
75466;HTU21D;64049;46.290;44.240;2023-09-19T10:17:05;30.26;21.92
75466;HTU21D;64049;46.290;44.240;2023-09-19T10:19:47;30.39;21.50
75466;HTU21D;64049;46.290;44.240;2023-09-19T10:22:17;29.91;21.49
75466;HTU21D;64049;46.290;44.240;2023-09-19T10:24:48;29.79;21.53
75466;HTU21D;64049;46.290;44.240;2023-09-19T10:27:20;29.81;21.22
75466;HTU21D;64049;46.290;44.240;2023-09-19T10:29:51;29.53;21.41
75466;HTU21D;64049;46.290;44.240;2023-09-19T10:32:21;29.49;22.38
75466;HTU21D;64049;46.290;44.240;2023-09-19T10:34:49;29.46;22.17
75466;HTU21D;64049;46.290;44.240;2023-09-19T10:37:16;29.35;22.08
75466;HTU21D;64049;46.290;44.240;2023-09-19T10:39:46;29.47;21.72
75466;HTU21D;64049;46.290;44.240;2023-09-19T10:42:17;29.31;21.05
75466;HTU21D;64049;46.290;44.240;2023-09-19T10:44:46;28.69;20.37
75466;HTU21D;64049;46.290;44.240;2023-09-19T10:47:15;28.52;20.82
75466;HTU21D;64049;46.290;44.240;2023-09-19T10:49:45;28.57;21.46
75466;HTU21D;64049;46.290;44.240;2023-09-19T10:52:15;28.68;21.09
75466;HTU21D;64049;46.290;44.240;2023-09-19T10:54:50;28.75;20.49
75466;HTU21D;64049;46.290;44.240;2023-09-19T10:57:22;29.00;21.27
75466;HTU21D;64049;46.290;44.240;2023-09-19T11:00:07;29.07;20.95
75466;HTU21D;64049;46.290;44.240;2023-09-19T11:05:39;29.19;21.58
75466;HTU21D;64049;46.290;44.240;2023-09-19T11:08:09;29.36;21.68
75466;HTU21D;64049;46.290;44.240;2023-09-19T11:10:47;29.49;21.13
75466;HTU21D;64049;46.290;44.240;2023-09-19T11:26:48;29.80;20.87
75466;HTU21D;64049;46.290;44.240;2023-09-19T11:29:30;29.85;21.15
75466;HTU21D;64049;46.290;44.240;2023-09-19T11:31:57;30.03;20.81
75466;HTU21D;64049;46.290;44.240;2023-09-19T11:34:38;30.18;20.36
75466;HTU21D;64049;46.290;44.240;2023-09-19T11:39:37;30.32;21.49
75466;HTU21D;64049;46.290;44.240;2023-09-19T11:48:23;30.52;20.90
75466;HTU21D;64049;46.290;44.240;2023-09-19T11:50:52;30.68;20.86
75466;HTU21D;64049;46.290;44.240;2023-09-19T11:53:19;30.80;20.44
75466;HTU21D;64049;46.290;44.240;2023-09-19T11:55:45;30.80;18.80
75466;HTU21D;64049;46.290;44.240;2023-09-19T11:58:14;30.77;19.98
75466;HTU21D;64049;46.290;44.240;2023-09-19T12:00:44;30.76;19.89
75466;HTU21D;64049;46.290;44.240;2023-09-19T12:03:11;31.44;19.43
75466;HTU21D;64049;46.290;44.240;2023-09-19T12:05:40;32.32;18.10
75466;HTU21D;64049;46.290;44.240;2023-09-19T12:08:07;33.18;16.91
75466;HTU21D;64049;46.290;44.240;2023-09-19T12:10:45;33.96;15.86
75466;HTU21D;64049;46.290;44.240;2023-09-19T12:13:16;34.68;15.05
75466;HTU21D;64049;46.290;44.240;2023-09-19T12:15:42;35.28;14.45
75466;HTU21D;64049;46.290;44.240;2023-09-19T12:18:34;35.87;13.65
75466;HTU21D;64049;46.290;44.240;2023-09-19T12:21:01;36.46;12.93
75466;HTU21D;64049;46.290;44.240;2023-09-19T12:23:36;36.60;12.18
75466;HTU21D;64049;46.290;44.240;2023-09-19T12:26:12;36.69;12.63
75466;HTU21D;64049;46.290;44.240;2023-09-19T12:28:41;36.86;11.89
75466;HTU21D;64049;46.290;44.240;2023-09-19T12:31:08;37.06;12.23
75466;HTU21D;64049;46.290;44.240;2023-09-19T12:33:34;37.50;11.68
75466;HTU21D;64049;46.290;44.240;2023-09-19T12:39:24;37.31;11.41
75466;HTU21D;64049;46.290;44.240;2023-09-19T12:41:52;37.48;11.22
75466;HTU21D;64049;46.290;44.240;2023-09-19T12:44:19;37.84;10.65
75466;HTU21D;64049;46.290;44.240;2023-09-19T12:47:20;38.12;10.61
75466;HTU21D;64049;46.290;44.240;2023-09-19T12:50:15;38.49;10.52
75466;HTU21D;64049;46.290;44.240;2023-09-19T12:53:00;38.41;10.17
75466;HTU21D;64049;46.290;44.240;2023-09-19T12:55:36;38.21;10.11
75466;HTU21D;64049;46.290;44.240;2023-09-19T12:58:12;38.14;10.12
75466;HTU21D;64049;46.290;44.240;2023-09-19T13:00:42;37.94;9.62
75466;HTU21D;64049;46.290;44.240;2023-09-19T13:06:03;36.71;12.24
75466;HTU21D;64049;46.290;44.240;2023-09-19T13:08:31;35.64;13.29
75466;HTU21D;64049;46.290;44.240;2023-09-19T13:11:05;35.14;13.80
75466;HTU21D;64049;46.290;44.240;2023-09-19T13:13:33;34.81;14.10
75466;HTU21D;64049;46.290;44.240;2023-09-19T13:19:05;33.97;14.14
75466;HTU21D;64049;46.290;44.240;2023-09-19T13:21:32;34.12;14.32
75466;HTU21D;64049;46.290;44.240;2023-09-19T13:24:23;34.10;14.48
75466;HTU21D;64049;46.290;44.240;2023-09-19T13:29:54;35.08;13.53
75466;HTU21D;64049;46.290;44.240;2023-09-19T13:32:20;35.37;12.64
75466;HTU21D;64049;46.290;44.240;2023-09-19T13:34:46;34.73;13.18
75466;HTU21D;64049;46.290;44.240;2023-09-19T13:37:12;34.50;13.62
75466;HTU21D;64049;46.290;44.240;2023-09-19T13:39:38;34.24;13.82
75466;HTU21D;64049;46.290;44.240;2023-09-19T13:42:08;34.02;13.94
75466;HTU21D;64049;46.290;44.240;2023-09-19T13:44:37;33.73;14.40
75466;HTU21D;64049;46.290;44.240;2023-09-19T13:47:14;33.90;14.41
75466;HTU21D;64049;46.290;44.240;2023-09-19T13:49:40;33.08;15.22
75466;HTU21D;64049;46.290;44.240;2023-09-19T13:52:08;32.17;15.77
75466;HTU21D;64049;46.290;44.240;2023-09-19T13:54:34;32.32;15.21
75466;HTU21D;64049;46.290;44.240;2023-09-19T13:57:06;32.97;14.72
75466;HTU21D;64049;46.290;44.240;2023-09-19T13:59:33;33.41;14.95
75466;HTU21D;64049;46.290;44.240;2023-09-19T14:01:59;33.81;14.45
75466;HTU21D;64049;46.290;44.240;2023-09-19T14:04:25;33.75;14.51
75466;HTU21D;64049;46.290;44.240;2023-09-19T14:06:53;33.32;14.98
75466;HTU21D;64049;46.290;44.240;2023-09-19T14:09:19;32.72;15.21
75466;HTU21D;64049;46.290;44.240;2023-09-19T14:11:45;32.18;15.32
75466;HTU21D;64049;46.290;44.240;2023-09-19T14:14:13;31.81;15.80
75466;HTU21D;64049;46.290;44.240;2023-09-19T14:16:40;31.51;16.51
75466;HTU21D;64049;46.290;44.240;2023-09-19T14:19:07;31.13;17.26
75466;HTU21D;64049;46.290;44.240;2023-09-19T14:21:33;30.57;18.23
75466;HTU21D;64049;46.290;44.240;2023-09-19T14:23:59;30.06;18.90
75466;HTU21D;64049;46.290;44.240;2023-09-19T14:26:26;29.87;19.44
75466;HTU21D;64049;46.290;44.240;2023-09-19T14:28:52;30.00;19.38
75466;HTU21D;64049;46.290;44.240;2023-09-19T14:31:17;30.08;19.34
75466;HTU21D;64049;46.290;44.240;2023-09-19T14:33:43;29.90;19.44
75466;HTU21D;64049;46.290;44.240;2023-09-19T14:36:10;29.61;19.92
75466;HTU21D;64049;46.290;44.240;2023-09-19T14:38:37;29.45;20.29
75466;HTU21D;64049;46.290;44.240;2023-09-19T14:41:04;29.27;20.76
75466;HTU21D;64049;46.290;44.240;2023-09-19T14:43:31;28.89;21.49
75466;HTU21D;64049;46.290;44.240;2023-09-19T14:46:06;27.88;22.92
75466;HTU21D;64049;46.290;44.240;2023-09-19T14:48:40;26.67;24.40
75466;HTU21D;64049;46.290;44.240;2023-09-19T14:51:07;25.77;25.77
75466;HTU21D;64049;46.290;44.240;2023-09-19T14:53:38;25.12;26.81
75466;HTU21D;64049;46.290;44.240;2023-09-19T14:56:07;24.57;27.65
75466;HTU21D;64049;46.290;44.240;2023-09-19T14:58:34;24.13;28.27
75466;HTU21D;64049;46.290;44.240;2023-09-19T15:01:06;23.76;28.97
75466;HTU21D;64049;46.290;44.240;2023-09-19T15:03:34;23.43;29.51
75466;HTU21D;64049;46.290;44.240;2023-09-19T15:06:03;23.13;30.03
75466;HTU21D;64049;46.290;44.240;2023-09-19T15:08:33;22.83;30.45
75466;HTU21D;64049;46.290;44.240;2023-09-19T15:11:04;22.55;30.76
75466;HTU21D;64049;46.290;44.240;2023-09-19T15:13:33;22.27;31.02
75466;HTU21D;64049;46.290;44.240;2023-09-19T15:16:01;22.06;31.09
75466;HTU21D;64049;46.290;44.240;2023-09-19T15:18:42;21.82;31.32
75466;HTU21D;64049;46.290;44.240;2023-09-19T15:21:11;21.62;31.37
75466;HTU21D;64049;46.290;44.240;2023-09-19T15:23:40;21.40;31.71
75466;HTU21D;64049;46.290;44.240;2023-09-19T15:26:11;21.24;31.94
75466;HTU21D;64049;46.290;44.240;2023-09-19T15:28:37;21.08;32.08
75466;HTU21D;64049;46.290;44.240;2023-09-19T15:31:05;20.92;32.28
75466;HTU21D;64049;46.290;44.240;2023-09-19T15:33:32;20.75;32.29
75466;HTU21D;64049;46.290;44.240;2023-09-19T15:38:31;20.46;32.74
75466;HTU21D;64049;46.290;44.240;2023-09-19T15:40:59;20.35;32.89
75466;HTU21D;64049;46.290;44.240;2023-09-19T15:43:26;20.22;33.00
75466;HTU21D;64049;46.290;44.240;2023-09-19T15:45:52;20.11;33.20
75466;HTU21D;64049;46.290;44.240;2023-09-19T15:48:18;19.98;33.26
75466;HTU21D;64049;46.290;44.240;2023-09-19T15:50:47;19.87;33.36
75466;HTU21D;64049;46.290;44.240;2023-09-19T15:53:15;19.77;33.50
75466;HTU21D;64049;46.290;44.240;2023-09-19T15:55:56;19.65;33.71
75466;HTU21D;64049;46.290;44.240;2023-09-19T15:58:53;19.53;33.95
75466;HTU21D;64049;46.290;44.240;2023-09-19T16:02:03;19.37;33.92
75466;HTU21D;64049;46.290;44.240;2023-09-19T16:04:30;19.25;34.05
75466;HTU21D;64049;46.290;44.240;2023-09-19T16:07:07;19.16;34.23
75466;HTU21D;64049;46.290;44.240;2023-09-19T16:09:34;19.09;34.26
75466;HTU21D;64049;46.290;44.240;2023-09-19T16:12:01;18.98;34.50
75466;HTU21D;64049;46.290;44.240;2023-09-19T16:14:29;18.92;34.60
75466;HTU21D;64049;46.290;44.240;2023-09-19T16:17:12;18.82;34.79
75466;HTU21D;64049;46.290;44.240;2023-09-19T16:19:38;18.76;34.92
75466;HTU21D;64049;46.290;44.240;2023-09-19T16:22:04;18.68;35.03
75466;HTU21D;64049;46.290;44.240;2023-09-19T16:24:34;18.59;35.43
75466;HTU21D;64049;46.290;44.240;2023-09-19T16:27:02;18.53;35.55
75466;HTU21D;64049;46.290;44.240;2023-09-19T16:30:08;18.44;35.64
75466;HTU21D;64049;46.290;44.240;2023-09-19T16:33:11;18.33;35.63
75466;HTU21D;64049;46.290;44.240;2023-09-19T16:35:38;18.24;35.64
75466;HTU21D;64049;46.290;44.240;2023-09-19T16:38:06;18.19;35.74
75466;HTU21D;64049;46.290;44.240;2023-09-19T16:40:34;18.09;35.77
75466;HTU21D;64049;46.290;44.240;2023-09-19T16:43:02;18.03;35.87
75466;HTU21D;64049;46.290;44.240;2023-09-19T16:45:36;17.94;36.17
75466;HTU21D;64049;46.290;44.240;2023-09-19T16:48:06;17.91;36.12
75466;HTU21D;64049;46.290;44.240;2023-09-19T16:50:34;17.85;36.20
75466;HTU21D;64049;46.290;44.240;2023-09-19T16:53:02;17.79;36.48
75466;HTU21D;64049;46.290;44.240;2023-09-19T16:55:33;17.72;36.37
75466;HTU21D;64049;46.290;44.240;2023-09-19T16:58:25;17.64;36.70
75466;HTU21D;64049;46.290;44.240;2023-09-19T17:00:53;17.58;36.61
75466;HTU21D;64049;46.290;44.240;2023-09-19T17:03:33;17.47;36.92
75466;HTU21D;64049;46.290;44.240;2023-09-19T17:06:10;17.37;37.10
75466;HTU21D;64049;46.290;44.240;2023-09-19T17:08:38;17.31;37.09
75466;HTU21D;64049;46.290;44.240;2023-09-19T17:11:07;17.24;37.24
75466;HTU21D;64049;46.290;44.240;2023-09-19T17:13:39;17.19;37.33
75466;HTU21D;64049;46.290;44.240;2023-09-19T17:16:17;17.13;37.43
75466;HTU21D;64049;46.290;44.240;2023-09-19T17:19:06;17.07;37.53
75466;HTU21D;64049;46.290;44.240;2023-09-19T17:21:37;17.02;37.81
75466;HTU21D;64049;46.290;44.240;2023-09-19T17:24:03;16.98;38.14
75466;HTU21D;64049;46.290;44.240;2023-09-19T17:26:35;16.92;38.40
75466;HTU21D;64049;46.290;44.240;2023-09-19T17:29:03;16.87;38.41
75466;HTU21D;64049;46.290;44.240;2023-09-19T17:31:29;16.80;38.51
75466;HTU21D;64049;46.290;44.240;2023-09-19T17:33:55;16.74;38.63
75466;HTU21D;64049;46.290;44.240;2023-09-19T17:36:26;16.69;39.01
75466;HTU21D;64049;46.290;44.240;2023-09-19T17:39:01;16.64;38.97
75466;HTU21D;64049;46.290;44.240;2023-09-19T17:41:30;16.61;39.10
75466;HTU21D;64049;46.290;44.240;2023-09-19T17:43:58;16.57;39.21
75466;HTU21D;64049;46.290;44.240;2023-09-19T17:46:28;16.52;39.33
75466;HTU21D;64049;46.290;44.240;2023-09-19T17:49:02;16.50;39.36
75466;HTU21D;64049;46.290;44.240;2023-09-19T17:51:28;16.47;39.61
75466;HTU21D;64049;46.290;44.240;2023-09-19T17:54:04;16.42;39.78
75466;HTU21D;64049;46.290;44.240;2023-09-19T17:59:36;16.29;40.10
75466;HTU21D;64049;46.290;44.240;2023-09-19T18:02:03;16.22;40.36
75466;HTU21D;64049;46.290;44.240;2023-09-19T18:04:31;16.17;40.36
75466;HTU21D;64049;46.290;44.240;2023-09-19T18:07:04;16.13;39.97
75466;HTU21D;64049;46.290;44.240;2023-09-19T18:09:31;16.06;40.21
75466;HTU21D;64049;46.290;44.240;2023-09-19T18:11:57;16.02;40.49
75466;HTU21D;64049;46.290;44.240;2023-09-19T18:14:23;16.02;40.78
75466;HTU21D;64049;46.290;44.240;2023-09-19T18:16:51;15.98;41.17
75466;HTU21D;64049;46.290;44.240;2023-09-19T18:19:25;15.91;41.17
75466;HTU21D;64049;46.290;44.240;2023-09-19T18:22:04;15.87;41.37
75466;HTU21D;64049;46.290;44.240;2023-09-19T18:24:31;15.83;41.47
75466;HTU21D;64049;46.290;44.240;2023-09-19T18:27:04;15.82;41.76
75466;HTU21D;64049;46.290;44.240;2023-09-19T18:29:30;15.84;41.62